sensor_id;sensor_type;location;lat;lon;timestamp;P1;durP1;ratioP1;P2;durP2;ratioP2
20982;SDS011;10650;51.528;6.748;2023-01-28T00:01:32;7.40;;;6.70;;
20982;SDS011;10650;51.528;6.748;2023-01-28T00:03:59;8.00;;;7.25;;
20982;SDS011;10650;51.528;6.748;2023-01-28T00:06:27;7.82;;;6.90;;
20982;SDS011;10650;51.528;6.748;2023-01-28T00:08:55;7.78;;;6.97;;
20982;SDS011;10650;51.528;6.748;2023-01-28T00:11:23;7.82;;;7.13;;
20982;SDS011;10650;51.528;6.748;2023-01-28T00:13:52;7.78;;;7.07;;
20982;SDS011;10650;51.528;6.748;2023-01-28T00:16:20;7.90;;;7.18;;
20982;SDS011;10650;51.528;6.748;2023-01-28T00:18:48;8.13;;;7.32;;
20982;SDS011;10650;51.528;6.748;2023-01-28T00:21:17;7.70;;;7.00;;
20982;SDS011;10650;51.528;6.748;2023-01-28T00:23:46;8.05;;;6.70;;
20982;SDS011;10650;51.528;6.748;2023-01-28T00:26:18;8.68;;;6.93;;
20982;SDS011;10650;51.528;6.748;2023-01-28T00:28:45;7.93;;;7.20;;
20982;SDS011;10650;51.528;6.748;2023-01-28T00:31:16;8.15;;;7.35;;
20982;SDS011;10650;51.528;6.748;2023-01-28T00:33:46;9.10;;;7.70;;
20982;SDS011;10650;51.528;6.748;2023-01-28T00:36:16;8.70;;;7.90;;
20982;SDS011;10650;51.528;6.748;2023-01-28T00:38:48;8.35;;;7.65;;
20982;SDS011;10650;51.528;6.748;2023-01-28T00:41:17;8.25;;;7.45;;
20982;SDS011;10650;51.528;6.748;2023-01-28T00:43:47;8.20;;;7.38;;
20982;SDS011;10650;51.528;6.748;2023-01-28T00:46:17;8.45;;;7.55;;
20982;SDS011;10650;51.528;6.748;2023-01-28T00:48:47;8.38;;;7.57;;
20982;SDS011;10650;51.528;6.748;2023-01-28T00:51:15;8.88;;;8.02;;
20982;SDS011;10650;51.528;6.748;2023-01-28T00:53:45;8.07;;;7.32;;
20982;SDS011;10650;51.528;6.748;2023-01-28T00:56:14;8.18;;;7.00;;
20982;SDS011;10650;51.528;6.748;2023-01-28T00:58:43;7.95;;;7.20;;
20982;SDS011;10650;51.528;6.748;2023-01-28T01:01:12;8.85;;;7.63;;
20982;SDS011;10650;51.528;6.748;2023-01-28T01:03:43;8.98;;;7.40;;
20982;SDS011;10650;51.528;6.748;2023-01-28T01:06:11;9.30;;;7.75;;
20982;SDS011;10650;51.528;6.748;2023-01-28T01:08:42;9.18;;;7.90;;
20982;SDS011;10650;51.528;6.748;2023-01-28T01:11:15;7.68;;;6.95;;
20982;SDS011;10650;51.528;6.748;2023-01-28T01:13:44;7.65;;;6.95;;
20982;SDS011;10650;51.528;6.748;2023-01-28T01:16:15;7.93;;;7.22;;
20982;SDS011;10650;51.528;6.748;2023-01-28T01:18:44;7.25;;;6.65;;
20982;SDS011;10650;51.528;6.748;2023-01-28T01:21:13;7.75;;;7.05;;
20982;SDS011;10650;51.528;6.748;2023-01-28T01:23:42;7.10;;;6.50;;
20982;SDS011;10650;51.528;6.748;2023-01-28T01:26:11;7.32;;;6.70;;
20982;SDS011;10650;51.528;6.748;2023-01-28T01:28:40;7.60;;;6.70;;
20982;SDS011;10650;51.528;6.748;2023-01-28T01:31:09;7.13;;;6.43;;
20982;SDS011;10650;51.528;6.748;2023-01-28T01:33:40;8.40;;;7.00;;
20982;SDS011;10650;51.528;6.748;2023-01-28T01:36:10;7.57;;;6.88;;
20982;SDS011;10650;51.528;6.748;2023-01-28T01:38:39;7.72;;;6.90;;
20982;SDS011;10650;51.528;6.748;2023-01-28T01:41:07;7.80;;;7.00;;
20982;SDS011;10650;51.528;6.748;2023-01-28T01:43:50;7.30;;;6.70;;
20982;SDS011;10650;51.528;6.748;2023-01-28T01:46:21;8.15;;;7.35;;
20982;SDS011;10650;51.528;6.748;2023-01-28T01:48:52;8.10;;;7.40;;
20982;SDS011;10650;51.528;6.748;2023-01-28T01:51:25;7.65;;;6.95;;
20982;SDS011;10650;51.528;6.748;2023-01-28T01:53:57;8.45;;;7.50;;
20982;SDS011;10650;51.528;6.748;2023-01-28T01:56:27;7.82;;;7.18;;
20982;SDS011;10650;51.528;6.748;2023-01-28T01:58:59;8.75;;;7.63;;
20982;SDS011;10650;51.528;6.748;2023-01-28T02:01:29;7.93;;;7.22;;
20982;SDS011;10650;51.528;6.748;2023-01-28T02:03:59;8.90;;;8.13;;
20982;SDS011;10650;51.528;6.748;2023-01-28T02:06:33;9.82;;;8.85;;
20982;SDS011;10650;51.528;6.748;2023-01-28T02:09:05;9.35;;;8.55;;
20982;SDS011;10650;51.528;6.748;2023-01-28T02:11:34;9.55;;;8.65;;
20982;SDS011;10650;51.528;6.748;2023-01-28T02:14:04;9.02;;;8.15;;
20982;SDS011;10650;51.528;6.748;2023-01-28T02:16:33;9.52;;;8.50;;
20982;SDS011;10650;51.528;6.748;2023-01-28T02:19:01;8.75;;;7.85;;
20982;SDS011;10650;51.528;6.748;2023-01-28T02:21:43;9.60;;;8.70;;
20982;SDS011;10650;51.528;6.748;2023-01-28T02:24:31;10.25;;;8.27;;
20982;SDS011;10650;51.528;6.748;2023-01-28T02:27:23;9.43;;;8.52;;
20982;SDS011;10650;51.528;6.748;2023-01-28T02:30:00;9.35;;;8.50;;
20982;SDS011;10650;51.528;6.748;2023-01-28T02:32:35;10.05;;;9.15;;
20982;SDS011;10650;51.528;6.748;2023-01-28T02:35:11;9.35;;;8.48;;
20982;SDS011;10650;51.528;6.748;2023-01-28T02:37:44;9.65;;;8.75;;
20982;SDS011;10650;51.528;6.748;2023-01-28T02:40:15;9.85;;;8.82;;
20982;SDS011;10650;51.528;6.748;2023-01-28T02:42:48;8.85;;;8.05;;
20982;SDS011;10650;51.528;6.748;2023-01-28T02:45:20;9.32;;;8.52;;
20982;SDS011;10650;51.528;6.748;2023-01-28T02:47:49;10.45;;;9.38;;
20982;SDS011;10650;51.528;6.748;2023-01-28T02:50:23;9.80;;;8.90;;
20982;SDS011;10650;51.528;6.748;2023-01-28T02:53:01;9.65;;;8.75;;
20982;SDS011;10650;51.528;6.748;2023-01-28T02:56:01;10.00;;;8.50;;
20982;SDS011;10650;51.528;6.748;2023-01-28T02:58:36;10.45;;;9.45;;
20982;SDS011;10650;51.528;6.748;2023-01-28T03:01:13;9.90;;;8.90;;
20982;SDS011;10650;51.528;6.748;2023-01-28T03:03:49;10.30;;;9.40;;
20982;SDS011;10650;51.528;6.748;2023-01-28T03:06:27;10.43;;;9.48;;
20982;SDS011;10650;51.528;6.748;2023-01-28T03:09:00;10.18;;;9.18;;
20982;SDS011;10650;51.528;6.748;2023-01-28T03:11:50;10.50;;;9.40;;
20982;SDS011;10650;51.528;6.748;2023-01-28T03:14:39;10.70;;;9.60;;
20982;SDS011;10650;51.528;6.748;2023-01-28T03:17:27;12.55;;;11.15;;
20982;SDS011;10650;51.528;6.748;2023-01-28T03:20:17;11.05;;;9.95;;
20982;SDS011;10650;51.528;6.748;2023-01-28T03:23:06;12.98;;;9.93;;
20982;SDS011;10650;51.528;6.748;2023-01-28T03:25:57;10.80;;;9.70;;
20982;SDS011;10650;51.528;6.748;2023-01-28T03:28:45;11.95;;;10.80;;
20982;SDS011;10650;51.528;6.748;2023-01-28T03:31:33;12.60;;;10.77;;
20982;SDS011;10650;51.528;6.748;2023-01-28T03:34:21;12.00;;;10.90;;
20982;SDS011;10650;51.528;6.748;2023-01-28T03:37:07;13.23;;;11.15;;
20982;SDS011;10650;51.528;6.748;2023-01-28T03:39:36;13.40;;;11.20;;
20982;SDS011;10650;51.528;6.748;2023-01-28T03:42:05;12.70;;;10.90;;
20982;SDS011;10650;51.528;6.748;2023-01-28T03:44:34;12.10;;;10.77;;
20982;SDS011;10650;51.528;6.748;2023-01-28T03:49:47;13.10;;;11.63;;
20982;SDS011;10650;51.528;6.748;2023-01-28T03:52:17;12.50;;;11.20;;
20982;SDS011;10650;51.528;6.748;2023-01-28T03:54:46;14.07;;;11.63;;
20982;SDS011;10650;51.528;6.748;2023-01-28T03:57:14;18.02;;;13.90;;
20982;SDS011;10650;51.528;6.748;2023-01-28T03:59:43;15.52;;;12.95;;
20982;SDS011;10650;51.528;6.748;2023-01-28T04:02:11;15.85;;;14.00;;
20982;SDS011;10650;51.528;6.748;2023-01-28T04:04:39;14.70;;;13.10;;
20982;SDS011;10650;51.528;6.748;2023-01-28T04:07:10;15.27;;;13.35;;
20982;SDS011;10650;51.528;6.748;2023-01-28T04:09:40;16.38;;;14.07;;
20982;SDS011;10650;51.528;6.748;2023-01-28T04:12:09;15.50;;;13.40;;
20982;SDS011;10650;51.528;6.748;2023-01-28T04:14:37;14.18;;;12.68;;
20982;SDS011;10650;51.528;6.748;2023-01-28T04:17:06;15.30;;;13.52;;
20982;SDS011;10650;51.528;6.748;2023-01-28T04:19:35;17.70;;;14.57;;
20982;SDS011;10650;51.528;6.748;2023-01-28T04:22:04;16.23;;;13.95;;
20982;SDS011;10650;51.528;6.748;2023-01-28T04:24:35;17.95;;;14.88;;
20982;SDS011;10650;51.528;6.748;2023-01-28T04:27:02;17.42;;;14.45;;
20982;SDS011;10650;51.528;6.748;2023-01-28T04:29:30;16.60;;;14.30;;
20982;SDS011;10650;51.528;6.748;2023-01-28T04:31:58;20.52;;;14.20;;
20982;SDS011;10650;51.528;6.748;2023-01-28T04:34:25;17.50;;;14.35;;
20982;SDS011;10650;51.528;6.748;2023-01-28T04:36:53;17.10;;;14.43;;
20982;SDS011;10650;51.528;6.748;2023-01-28T04:39:21;18.27;;;14.70;;
20982;SDS011;10650;51.528;6.748;2023-01-28T04:41:50;18.17;;;15.15;;
20982;SDS011;10650;51.528;6.748;2023-01-28T04:44:18;18.50;;;14.82;;
20982;SDS011;10650;51.528;6.748;2023-01-28T04:46:45;19.15;;;15.73;;
20982;SDS011;10650;51.528;6.748;2023-01-28T04:49:13;19.38;;;15.35;;
20982;SDS011;10650;51.528;6.748;2023-01-28T04:51:41;20.05;;;15.43;;
20982;SDS011;10650;51.528;6.748;2023-01-28T04:54:08;18.10;;;15.27;;
20982;SDS011;10650;51.528;6.748;2023-01-28T04:56:36;17.85;;;15.55;;
20982;SDS011;10650;51.528;6.748;2023-01-28T04:59:05;19.10;;;15.48;;
20982;SDS011;10650;51.528;6.748;2023-01-28T05:01:33;19.83;;;16.13;;
20982;SDS011;10650;51.528;6.748;2023-01-28T05:04:01;20.05;;;15.85;;
20982;SDS011;10650;51.528;6.748;2023-01-28T05:06:30;19.30;;;15.82;;
20982;SDS011;10650;51.528;6.748;2023-01-28T05:08:58;19.95;;;16.42;;
20982;SDS011;10650;51.528;6.748;2023-01-28T05:11:26;20.48;;;16.30;;
20982;SDS011;10650;51.528;6.748;2023-01-28T05:13:54;20.67;;;15.50;;
20982;SDS011;10650;51.528;6.748;2023-01-28T05:16:23;20.63;;;16.52;;
20982;SDS011;10650;51.528;6.748;2023-01-28T05:18:51;19.85;;;16.00;;
20982;SDS011;10650;51.528;6.748;2023-01-28T05:21:19;20.27;;;16.23;;
20982;SDS011;10650;51.528;6.748;2023-01-28T05:23:47;20.83;;;16.40;;
20982;SDS011;10650;51.528;6.748;2023-01-28T05:26:14;20.05;;;15.95;;
20982;SDS011;10650;51.528;6.748;2023-01-28T05:28:42;21.25;;;16.90;;
20982;SDS011;10650;51.528;6.748;2023-01-28T05:31:10;21.23;;;16.60;;
20982;SDS011;10650;51.528;6.748;2023-01-28T05:33:39;20.98;;;17.02;;
20982;SDS011;10650;51.528;6.748;2023-01-28T05:36:07;23.02;;;16.90;;
20982;SDS011;10650;51.528;6.748;2023-01-28T05:38:34;22.55;;;16.90;;
20982;SDS011;10650;51.528;6.748;2023-01-28T05:41:02;22.98;;;16.73;;
20982;SDS011;10650;51.528;6.748;2023-01-28T05:43:30;23.33;;;17.50;;
20982;SDS011;10650;51.528;6.748;2023-01-28T05:45:58;22.27;;;17.10;;
20982;SDS011;10650;51.528;6.748;2023-01-28T05:48:26;21.90;;;16.67;;
20982;SDS011;10650;51.528;6.748;2023-01-28T05:50:55;22.30;;;16.88;;
20982;SDS011;10650;51.528;6.748;2023-01-28T05:53:23;20.77;;;16.55;;
20982;SDS011;10650;51.528;6.748;2023-01-28T05:55:51;21.35;;;16.70;;
20982;SDS011;10650;51.528;6.748;2023-01-28T05:58:19;21.42;;;16.77;;
20982;SDS011;10650;51.528;6.748;2023-01-28T06:00:47;21.92;;;17.33;;
20982;SDS011;10650;51.528;6.748;2023-01-28T06:03:15;22.40;;;17.15;;
20982;SDS011;10650;51.528;6.748;2023-01-28T06:05:43;22.98;;;16.90;;
20982;SDS011;10650;51.528;6.748;2023-01-28T06:08:12;21.98;;;16.58;;
20982;SDS011;10650;51.528;6.748;2023-01-28T06:10:40;22.13;;;17.23;;
20982;SDS011;10650;51.528;6.748;2023-01-28T06:13:07;23.38;;;17.55;;
20982;SDS011;10650;51.528;6.748;2023-01-28T06:15:35;21.83;;;16.95;;
20982;SDS011;10650;51.528;6.748;2023-01-28T06:18:03;21.88;;;17.30;;
20982;SDS011;10650;51.528;6.748;2023-01-28T06:20:31;21.50;;;17.73;;
20982;SDS011;10650;51.528;6.748;2023-01-28T06:22:58;22.65;;;17.33;;
20982;SDS011;10650;51.528;6.748;2023-01-28T06:25:28;21.92;;;16.98;;
20982;SDS011;10650;51.528;6.748;2023-01-28T06:27:55;20.60;;;16.80;;
20982;SDS011;10650;51.528;6.748;2023-01-28T06:30:23;22.00;;;17.13;;
20982;SDS011;10650;51.528;6.748;2023-01-28T06:32:54;24.23;;;17.85;;
20982;SDS011;10650;51.528;6.748;2023-01-28T06:35:22;21.52;;;16.90;;
20982;SDS011;10650;51.528;6.748;2023-01-28T06:37:51;23.23;;;17.40;;
20982;SDS011;10650;51.528;6.748;2023-01-28T06:40:19;22.38;;;16.92;;
20982;SDS011;10650;51.528;6.748;2023-01-28T06:42:49;21.30;;;16.13;;
20982;SDS011;10650;51.528;6.748;2023-01-28T06:45:17;22.60;;;17.10;;
20982;SDS011;10650;51.528;6.748;2023-01-28T06:47:44;22.92;;;17.73;;
20982;SDS011;10650;51.528;6.748;2023-01-28T06:50:12;21.77;;;17.40;;
20982;SDS011;10650;51.528;6.748;2023-01-28T06:52:40;22.45;;;16.75;;
20982;SDS011;10650;51.528;6.748;2023-01-28T06:55:08;25.63;;;18.58;;
20982;SDS011;10650;51.528;6.748;2023-01-28T06:57:36;23.30;;;17.52;;
20982;SDS011;10650;51.528;6.748;2023-01-28T07:00:07;23.58;;;17.77;;
20982;SDS011;10650;51.528;6.748;2023-01-28T07:02:36;21.95;;;16.60;;
20982;SDS011;10650;51.528;6.748;2023-01-28T07:05:04;22.20;;;17.30;;
20982;SDS011;10650;51.528;6.748;2023-01-28T07:07:32;23.52;;;17.13;;
20982;SDS011;10650;51.528;6.748;2023-01-28T07:10:00;28.15;;;16.85;;
20982;SDS011;10650;51.528;6.748;2023-01-28T07:12:28;21.10;;;16.30;;
20982;SDS011;10650;51.528;6.748;2023-01-28T07:14:56;23.77;;;17.80;;
20982;SDS011;10650;51.528;6.748;2023-01-28T07:17:25;24.75;;;17.58;;
20982;SDS011;10650;51.528;6.748;2023-01-28T07:19:52;24.77;;;17.25;;
20982;SDS011;10650;51.528;6.748;2023-01-28T07:22:20;21.75;;;16.42;;
20982;SDS011;10650;51.528;6.748;2023-01-28T07:24:48;21.40;;;16.80;;
20982;SDS011;10650;51.528;6.748;2023-01-28T07:27:16;22.27;;;16.90;;
20982;SDS011;10650;51.528;6.748;2023-01-28T07:29:43;22.58;;;17.38;;
20982;SDS011;10650;51.528;6.748;2023-01-28T07:32:11;24.98;;;18.10;;
20982;SDS011;10650;51.528;6.748;2023-01-28T07:34:40;21.77;;;16.25;;
20982;SDS011;10650;51.528;6.748;2023-01-28T07:37:08;20.23;;;16.55;;
20982;SDS011;10650;51.528;6.748;2023-01-28T07:39:36;22.02;;;16.90;;
20982;SDS011;10650;51.528;6.748;2023-01-28T07:42:04;22.17;;;17.45;;
20982;SDS011;10650;51.528;6.748;2023-01-28T07:44:32;23.85;;;18.23;;
20982;SDS011;10650;51.528;6.748;2023-01-28T07:47:01;21.27;;;16.58;;
20982;SDS011;10650;51.528;6.748;2023-01-28T07:49:29;24.15;;;17.15;;
20982;SDS011;10650;51.528;6.748;2023-01-28T07:51:59;21.75;;;16.15;;
20982;SDS011;10650;51.528;6.748;2023-01-28T07:54:26;22.90;;;17.73;;
20982;SDS011;10650;51.528;6.748;2023-01-28T07:56:54;22.20;;;17.20;;
20982;SDS011;10650;51.528;6.748;2023-01-28T07:59:22;22.55;;;16.98;;
20982;SDS011;10650;51.528;6.748;2023-01-28T08:01:49;22.92;;;16.75;;
20982;SDS011;10650;51.528;6.748;2023-01-28T08:04:20;23.77;;;18.27;;
20982;SDS011;10650;51.528;6.748;2023-01-28T08:06:48;26.30;;;19.33;;
20982;SDS011;10650;51.528;6.748;2023-01-28T08:09:18;26.02;;;18.92;;
20982;SDS011;10650;51.528;6.748;2023-01-28T08:11:46;23.48;;;17.75;;
20982;SDS011;10650;51.528;6.748;2023-01-28T08:14:14;20.85;;;17.17;;
20982;SDS011;10650;51.528;6.748;2023-01-28T08:16:42;21.80;;;18.27;;
20982;SDS011;10650;51.528;6.748;2023-01-28T08:19:09;21.58;;;17.02;;
20982;SDS011;10650;51.528;6.748;2023-01-28T08:21:37;21.42;;;16.88;;
20982;SDS011;10650;51.528;6.748;2023-01-28T08:24:05;23.98;;;18.15;;
20982;SDS011;10650;51.528;6.748;2023-01-28T08:26:35;22.33;;;17.17;;
20982;SDS011;10650;51.528;6.748;2023-01-28T08:29:03;22.25;;;17.55;;
20982;SDS011;10650;51.528;6.748;2023-01-28T08:31:33;21.25;;;17.20;;
20982;SDS011;10650;51.528;6.748;2023-01-28T08:34:00;21.75;;;17.40;;
20982;SDS011;10650;51.528;6.748;2023-01-28T08:36:28;22.50;;;18.02;;
20982;SDS011;10650;51.528;6.748;2023-01-28T08:38:56;22.27;;;18.75;;
20982;SDS011;10650;51.528;6.748;2023-01-28T08:41:24;22.33;;;17.65;;
20982;SDS011;10650;51.528;6.748;2023-01-28T08:43:53;23.92;;;19.23;;
20982;SDS011;10650;51.528;6.748;2023-01-28T08:46:21;22.45;;;18.65;;
20982;SDS011;10650;51.528;6.748;2023-01-28T08:48:49;22.33;;;18.60;;
20982;SDS011;10650;51.528;6.748;2023-01-28T08:51:16;21.45;;;17.88;;
20982;SDS011;10650;51.528;6.748;2023-01-28T08:53:44;24.35;;;18.15;;
20982;SDS011;10650;51.528;6.748;2023-01-28T08:56:15;24.63;;;19.27;;
20982;SDS011;10650;51.528;6.748;2023-01-28T08:58:42;21.40;;;17.65;;
20982;SDS011;10650;51.528;6.748;2023-01-28T09:01:12;21.85;;;17.65;;
20982;SDS011;10650;51.528;6.748;2023-01-28T09:03:39;25.77;;;18.00;;
20982;SDS011;10650;51.528;6.748;2023-01-28T09:06:07;21.35;;;17.20;;
20982;SDS011;10650;51.528;6.748;2023-01-28T09:08:35;22.10;;;17.85;;
20982;SDS011;10650;51.528;6.748;2023-01-28T09:11:03;22.33;;;16.92;;
20982;SDS011;10650;51.528;6.748;2023-01-28T09:13:31;22.58;;;18.20;;
20982;SDS011;10650;51.528;6.748;2023-01-28T09:15:59;22.88;;;18.00;;
20982;SDS011;10650;51.528;6.748;2023-01-28T09:18:28;22.00;;;16.98;;
20982;SDS011;10650;51.528;6.748;2023-01-28T09:20:56;25.98;;;18.60;;
20982;SDS011;10650;51.528;6.748;2023-01-28T09:23:23;22.48;;;17.35;;
20982;SDS011;10650;51.528;6.748;2023-01-28T09:25:58;23.25;;;17.75;;
20982;SDS011;10650;51.528;6.748;2023-01-28T09:28:26;23.15;;;17.58;;
20982;SDS011;10650;51.528;6.748;2023-01-28T09:30:59;21.30;;;17.23;;
20982;SDS011;10650;51.528;6.748;2023-01-28T09:33:29;23.13;;;17.40;;
20982;SDS011;10650;51.528;6.748;2023-01-28T09:35:58;22.75;;;17.42;;
20982;SDS011;10650;51.528;6.748;2023-01-28T09:38:27;22.52;;;17.77;;
20982;SDS011;10650;51.528;6.748;2023-01-28T09:40:55;26.38;;;18.08;;
20982;SDS011;10650;51.528;6.748;2023-01-28T09:43:32;21.60;;;17.33;;
20982;SDS011;10650;51.528;6.748;2023-01-28T09:46:11;22.15;;;17.67;;
20982;SDS011;10650;51.528;6.748;2023-01-28T09:48:43;22.13;;;16.70;;
20982;SDS011;10650;51.528;6.748;2023-01-28T09:51:16;21.23;;;17.73;;
20982;SDS011;10650;51.528;6.748;2023-01-28T09:53:53;23.10;;;18.50;;
20982;SDS011;10650;51.528;6.748;2023-01-28T09:56:24;21.88;;;17.10;;
20982;SDS011;10650;51.528;6.748;2023-01-28T09:58:55;21.90;;;17.38;;
20982;SDS011;10650;51.528;6.748;2023-01-28T10:01:30;22.90;;;17.00;;
20982;SDS011;10650;51.528;6.748;2023-01-28T10:04:08;22.17;;;17.30;;
20982;SDS011;10650;51.528;6.748;2023-01-28T10:06:52;21.77;;;17.20;;
20982;SDS011;10650;51.528;6.748;2023-01-28T10:09:30;22.05;;;17.73;;
20982;SDS011;10650;51.528;6.748;2023-01-28T10:12:05;22.88;;;17.13;;
20982;SDS011;10650;51.528;6.748;2023-01-28T10:14:46;23.83;;;18.15;;
20982;SDS011;10650;51.528;6.748;2023-01-28T10:17:24;22.80;;;17.08;;
20982;SDS011;10650;51.528;6.748;2023-01-28T10:19:57;22.63;;;16.45;;
20982;SDS011;10650;51.528;6.748;2023-01-28T10:22:30;21.73;;;17.23;;
20982;SDS011;10650;51.528;6.748;2023-01-28T10:25:02;20.00;;;16.30;;
20982;SDS011;10650;51.528;6.748;2023-01-28T10:27:34;20.42;;;16.92;;
20982;SDS011;10650;51.528;6.748;2023-01-28T10:30:10;21.30;;;16.58;;
20982;SDS011;10650;51.528;6.748;2023-01-28T10:32:45;25.77;;;18.40;;
20982;SDS011;10650;51.528;6.748;2023-01-28T10:35:19;21.58;;;17.75;;
20982;SDS011;10650;51.528;6.748;2023-01-28T10:37:47;22.92;;;16.05;;
20982;SDS011;10650;51.528;6.748;2023-01-28T10:40:16;22.23;;;16.52;;
20982;SDS011;10650;51.528;6.748;2023-01-28T10:42:45;24.58;;;18.05;;
20982;SDS011;10650;51.528;6.748;2023-01-28T10:45:14;22.83;;;18.20;;
20982;SDS011;10650;51.528;6.748;2023-01-28T10:47:47;23.45;;;17.83;;
20982;SDS011;10650;51.528;6.748;2023-01-28T10:50:22;23.98;;;17.75;;
20982;SDS011;10650;51.528;6.748;2023-01-28T10:52:52;22.92;;;18.15;;
20982;SDS011;10650;51.528;6.748;2023-01-28T10:55:21;22.85;;;17.80;;
20982;SDS011;10650;51.528;6.748;2023-01-28T10:57:50;24.38;;;19.00;;
20982;SDS011;10650;51.528;6.748;2023-01-28T11:00:23;24.35;;;18.60;;
20982;SDS011;10650;51.528;6.748;2023-01-28T11:02:53;26.67;;;19.20;;
20982;SDS011;10650;51.528;6.748;2023-01-28T11:05:26;27.05;;;20.63;;
20982;SDS011;10650;51.528;6.748;2023-01-28T11:08:02;25.10;;;20.27;;
20982;SDS011;10650;51.528;6.748;2023-01-28T11:10:31;25.05;;;20.25;;
20982;SDS011;10650;51.528;6.748;2023-01-28T11:13:02;27.92;;;20.90;;
20982;SDS011;10650;51.528;6.748;2023-01-28T11:15:31;26.75;;;21.42;;
20982;SDS011;10650;51.528;6.748;2023-01-28T11:18:00;27.63;;;20.55;;
20982;SDS011;10650;51.528;6.748;2023-01-28T11:20:34;28.45;;;19.73;;
20982;SDS011;10650;51.528;6.748;2023-01-28T11:23:14;26.35;;;20.38;;
20982;SDS011;10650;51.528;6.748;2023-01-28T11:25:45;26.88;;;20.48;;
20982;SDS011;10650;51.528;6.748;2023-01-28T11:28:14;27.70;;;20.92;;
20982;SDS011;10650;51.528;6.748;2023-01-28T11:30:49;25.63;;;20.40;;
20982;SDS011;10650;51.528;6.748;2023-01-28T11:33:20;27.48;;;21.65;;
20982;SDS011;10650;51.528;6.748;2023-01-28T11:35:54;26.55;;;20.52;;
20982;SDS011;10650;51.528;6.748;2023-01-28T11:38:24;27.42;;;20.88;;
20982;SDS011;10650;51.528;6.748;2023-01-28T11:40:53;25.73;;;21.45;;
20982;SDS011;10650;51.528;6.748;2023-01-28T11:43:22;29.00;;;21.15;;
20982;SDS011;10650;51.528;6.748;2023-01-28T11:45:54;26.73;;;20.13;;
20982;SDS011;10650;51.528;6.748;2023-01-28T11:48:32;24.92;;;19.77;;
20982;SDS011;10650;51.528;6.748;2023-01-28T11:51:12;26.73;;;20.02;;
20982;SDS011;10650;51.528;6.748;2023-01-28T11:54:04;25.87;;;19.77;;
20982;SDS011;10650;51.528;6.748;2023-01-28T11:56:52;24.95;;;20.05;;
20982;SDS011;10650;51.528;6.748;2023-01-28T11:59:33;24.92;;;19.73;;
20982;SDS011;10650;51.528;6.748;2023-01-28T12:02:13;26.17;;;20.55;;
20982;SDS011;10650;51.528;6.748;2023-01-28T12:04:59;25.23;;;20.75;;
20982;SDS011;10650;51.528;6.748;2023-01-28T12:07:43;26.67;;;19.85;;
20982;SDS011;10650;51.528;6.748;2023-01-28T12:10:21;26.25;;;19.27;;
20982;SDS011;10650;51.528;6.748;2023-01-28T12:13:07;25.70;;;20.80;;
20982;SDS011;10650;51.528;6.748;2023-01-28T12:15:51;24.45;;;19.23;;
20982;SDS011;10650;51.528;6.748;2023-01-28T12:18:48;25.38;;;20.10;;
20982;SDS011;10650;51.528;6.748;2023-01-28T12:21:39;23.17;;;19.00;;
20982;SDS011;10650;51.528;6.748;2023-01-28T12:24:19;25.63;;;20.08;;
20982;SDS011;10650;51.528;6.748;2023-01-28T12:27:03;25.90;;;20.30;;
20982;SDS011;10650;51.528;6.748;2023-01-28T12:29:38;25.30;;;19.92;;
20982;SDS011;10650;51.528;6.748;2023-01-28T12:32:17;26.15;;;20.38;;
20982;SDS011;10650;51.528;6.748;2023-01-28T12:35:07;25.52;;;19.92;;
20982;SDS011;10650;51.528;6.748;2023-01-28T12:37:56;26.25;;;20.27;;
20982;SDS011;10650;51.528;6.748;2023-01-28T12:40:39;30.10;;;20.65;;
20982;SDS011;10650;51.528;6.748;2023-01-28T12:43:24;44.30;;;33.10;;
20982;SDS011;10650;51.528;6.748;2023-01-28T12:46:07;26.88;;;20.90;;
20982;SDS011;10650;51.528;6.748;2023-01-28T12:48:39;40.13;;;31.10;;
20982;SDS011;10650;51.528;6.748;2023-01-28T12:51:13;28.83;;;22.17;;
20982;SDS011;10650;51.528;6.748;2023-01-28T12:53:46;30.70;;;23.60;;
20982;SDS011;10650;51.528;6.748;2023-01-28T12:56:21;25.60;;;19.60;;
20982;SDS011;10650;51.528;6.748;2023-01-28T12:58:54;26.58;;;21.13;;
20982;SDS011;10650;51.528;6.748;2023-01-28T13:01:27;26.83;;;21.13;;
20982;SDS011;10650;51.528;6.748;2023-01-28T13:04:02;26.92;;;21.27;;
20982;SDS011;10650;51.528;6.748;2023-01-28T13:06:37;43.92;;;31.60;;
20982;SDS011;10650;51.528;6.748;2023-01-28T13:09:12;27.58;;;21.52;;
20982;SDS011;10650;51.528;6.748;2023-01-28T13:11:45;25.20;;;19.30;;
20982;SDS011;10650;51.528;6.748;2023-01-28T13:14:14;27.10;;;20.65;;
20982;SDS011;10650;51.528;6.748;2023-01-28T13:16:43;27.50;;;20.42;;
20982;SDS011;10650;51.528;6.748;2023-01-28T13:19:20;25.83;;;20.13;;
20982;SDS011;10650;51.528;6.748;2023-01-28T13:21:49;26.30;;;20.58;;
20982;SDS011;10650;51.528;6.748;2023-01-28T13:24:19;27.40;;;20.70;;
20982;SDS011;10650;51.528;6.748;2023-01-28T13:26:51;26.40;;;20.67;;
20982;SDS011;10650;51.528;6.748;2023-01-28T13:29:27;20.10;;;16.02;;
20982;SDS011;10650;51.528;6.748;2023-01-28T13:31:57;26.05;;;20.70;;
20982;SDS011;10650;51.528;6.748;2023-01-28T13:34:33;26.00;;;20.45;;
20982;SDS011;10650;51.528;6.748;2023-01-28T13:37:03;38.65;;;27.00;;
20982;SDS011;10650;51.528;6.748;2023-01-28T13:39:45;26.88;;;21.00;;
20982;SDS011;10650;51.528;6.748;2023-01-28T13:42:24;27.00;;;21.42;;
20982;SDS011;10650;51.528;6.748;2023-01-28T13:44:54;25.00;;;20.05;;
20982;SDS011;10650;51.528;6.748;2023-01-28T13:47:23;28.33;;;22.02;;
20982;SDS011;10650;51.528;6.748;2023-01-28T13:49:57;35.08;;;25.63;;
20982;SDS011;10650;51.528;6.748;2023-01-28T13:52:30;30.48;;;22.48;;
20982;SDS011;10650;51.528;6.748;2023-01-28T13:55:01;28.95;;;22.23;;
20982;SDS011;10650;51.528;6.748;2023-01-28T14:00:46;29.63;;;21.60;;
20982;SDS011;10650;51.528;6.748;2023-01-28T14:03:48;28.20;;;21.85;;
20982;SDS011;10650;51.528;6.748;2023-01-28T14:06:38;27.88;;;21.08;;
20982;SDS011;10650;51.528;6.748;2023-01-28T14:12:22;25.23;;;19.98;;
20982;SDS011;10650;51.528;6.748;2023-01-28T14:15:12;27.80;;;21.42;;
20982;SDS011;10650;51.528;6.748;2023-01-28T14:18:22;28.27;;;21.92;;
20982;SDS011;10650;51.528;6.748;2023-01-28T14:20:53;32.95;;;24.05;;
20982;SDS011;10650;51.528;6.748;2023-01-28T14:23:23;44.35;;;33.33;;
20982;SDS011;10650;51.528;6.748;2023-01-28T14:25:57;35.25;;;25.08;;
20982;SDS011;10650;51.528;6.748;2023-01-28T14:28:36;32.22;;;23.08;;
20982;SDS011;10650;51.528;6.748;2023-01-28T14:31:11;31.52;;;23.63;;
20982;SDS011;10650;51.528;6.748;2023-01-28T14:33:46;30.02;;;22.27;;
20982;SDS011;10650;51.528;6.748;2023-01-28T14:36:14;29.98;;;22.75;;
20982;SDS011;10650;51.528;6.748;2023-01-28T14:38:42;51.35;;;36.17;;
20982;SDS011;10650;51.528;6.748;2023-01-28T14:41:15;27.20;;;20.40;;
20982;SDS011;10650;51.528;6.748;2023-01-28T14:43:49;30.00;;;22.17;;
20982;SDS011;10650;51.528;6.748;2023-01-28T14:46:23;33.05;;;22.65;;
20982;SDS011;10650;51.528;6.748;2023-01-28T14:49:03;30.45;;;22.35;;
20982;SDS011;10650;51.528;6.748;2023-01-28T14:52:02;29.42;;;22.17;;
20982;SDS011;10650;51.528;6.748;2023-01-28T14:54:51;29.90;;;22.17;;
20982;SDS011;10650;51.528;6.748;2023-01-28T14:57:32;27.65;;;21.08;;
20982;SDS011;10650;51.528;6.748;2023-01-28T15:00:15;30.58;;;23.38;;
20982;SDS011;10650;51.528;6.748;2023-01-28T15:02:47;29.08;;;21.85;;
20982;SDS011;10650;51.528;6.748;2023-01-28T15:05:17;29.45;;;23.23;;